sensor_id;sensor_type;location;lat;lon;timestamp;temperature;humidity
49379;DHT22;35254;47.990;-1.608;2024-01-06T00:01:00;20.80;52.20
49379;DHT22;35254;47.990;-1.608;2024-01-06T00:03:25;20.80;52.20
49379;DHT22;35254;47.990;-1.608;2024-01-06T00:05:51;20.80;52.20
49379;DHT22;35254;47.990;-1.608;2024-01-06T00:08:17;20.70;52.20
49379;DHT22;35254;47.990;-1.608;2024-01-06T00:10:42;20.70;52.20
49379;DHT22;35254;47.990;-1.608;2024-01-06T00:13:08;20.80;52.20
49379;DHT22;35254;47.990;-1.608;2024-01-06T00:15:34;20.80;52.10
49379;DHT22;35254;47.990;-1.608;2024-01-06T00:17:59;20.70;52.20
49379;DHT22;35254;47.990;-1.608;2024-01-06T00:20:25;20.70;52.10
49379;DHT22;35254;47.990;-1.608;2024-01-06T00:22:50;20.70;52.10
49379;DHT22;35254;47.990;-1.608;2024-01-06T00:25:16;20.70;52.10
49379;DHT22;35254;47.990;-1.608;2024-01-06T00:27:42;20.70;52.10
49379;DHT22;35254;47.990;-1.608;2024-01-06T00:30:07;20.70;52.10
49379;DHT22;35254;47.990;-1.608;2024-01-06T00:32:33;20.70;52.10
49379;DHT22;35254;47.990;-1.608;2024-01-06T00:34:59;20.70;52.10
49379;DHT22;35254;47.990;-1.608;2024-01-06T00:37:25;20.70;52.10
49379;DHT22;35254;47.990;-1.608;2024-01-06T00:39:50;20.70;52.10
49379;DHT22;35254;47.990;-1.608;2024-01-06T00:42:16;20.70;52.00
49379;DHT22;35254;47.990;-1.608;2024-01-06T00:44:41;20.70;52.10
49379;DHT22;35254;47.990;-1.608;2024-01-06T00:47:07;20.70;52.00
49379;DHT22;35254;47.990;-1.608;2024-01-06T00:49:33;20.70;52.10
49379;DHT22;35254;47.990;-1.608;2024-01-06T00:51:58;20.70;52.00
49379;DHT22;35254;47.990;-1.608;2024-01-06T00:54:24;20.70;52.00
49379;DHT22;35254;47.990;-1.608;2024-01-06T00:56:49;20.70;52.00
49379;DHT22;35254;47.990;-1.608;2024-01-06T00:59:15;20.70;52.00
49379;DHT22;35254;47.990;-1.608;2024-01-06T01:01:40;20.70;51.90
49379;DHT22;35254;47.990;-1.608;2024-01-06T01:04:06;20.70;52.00
49379;DHT22;35254;47.990;-1.608;2024-01-06T01:06:32;20.70;52.00
49379;DHT22;35254;47.990;-1.608;2024-01-06T01:08:57;20.70;52.00
49379;DHT22;35254;47.990;-1.608;2024-01-06T01:11:23;20.70;52.10
49379;DHT22;35254;47.990;-1.608;2024-01-06T01:13:48;20.70;52.00
49379;DHT22;35254;47.990;-1.608;2024-01-06T01:16:14;20.60;52.00
49379;DHT22;35254;47.990;-1.608;2024-01-06T01:18:40;20.60;52.00
49379;DHT22;35254;47.990;-1.608;2024-01-06T01:21:05;20.60;51.90
49379;DHT22;35254;47.990;-1.608;2024-01-06T01:23:31;20.60;51.90
49379;DHT22;35254;47.990;-1.608;2024-01-06T01:25:56;20.60;51.90
49379;DHT22;35254;47.990;-1.608;2024-01-06T01:28:22;20.60;51.90
49379;DHT22;35254;47.990;-1.608;2024-01-06T01:30:48;20.60;51.90
49379;DHT22;35254;47.990;-1.608;2024-01-06T01:33:13;20.60;51.90
49379;DHT22;35254;47.990;-1.608;2024-01-06T01:35:39;20.60;51.80
49379;DHT22;35254;47.990;-1.608;2024-01-06T01:38:04;20.60;51.80
49379;DHT22;35254;47.990;-1.608;2024-01-06T01:40:30;20.60;51.80
49379;DHT22;35254;47.990;-1.608;2024-01-06T01:42:55;20.60;51.80
49379;DHT22;35254;47.990;-1.608;2024-01-06T01:45:21;20.60;51.80
49379;DHT22;35254;47.990;-1.608;2024-01-06T01:47:47;20.60;51.80
49379;DHT22;35254;47.990;-1.608;2024-01-06T01:50:13;20.50;51.70
49379;DHT22;35254;47.990;-1.608;2024-01-06T01:52:41;20.50;51.70
49379;DHT22;35254;47.990;-1.608;2024-01-06T01:55:07;20.60;51.70
49379;DHT22;35254;47.990;-1.608;2024-01-06T01:57:33;20.50;51.60
49379;DHT22;35254;47.990;-1.608;2024-01-06T02:00:00;20.50;51.60
49379;DHT22;35254;47.990;-1.608;2024-01-06T02:02:26;20.50;51.60
49379;DHT22;35254;47.990;-1.608;2024-01-06T02:04:54;20.50;51.60
49379;DHT22;35254;47.990;-1.608;2024-01-06T02:07:20;20.50;51.40
49379;DHT22;35254;47.990;-1.608;2024-01-06T02:09:46;20.50;51.40
49379;DHT22;35254;47.990;-1.608;2024-01-06T02:12:11;20.50;51.40
49379;DHT22;35254;47.990;-1.608;2024-01-06T02:14:37;20.40;51.30
49379;DHT22;35254;47.990;-1.608;2024-01-06T02:17:02;20.40;51.40
49379;DHT22;35254;47.990;-1.608;2024-01-06T02:19:28;20.50;51.40
49379;DHT22;35254;47.990;-1.608;2024-01-06T02:21:54;20.50;51.40
49379;DHT22;35254;47.990;-1.608;2024-01-06T02:24:20;20.40;51.40
49379;DHT22;35254;47.990;-1.608;2024-01-06T02:26:46;20.40;51.40
49379;DHT22;35254;47.990;-1.608;2024-01-06T02:29:12;20.40;51.30
49379;DHT22;35254;47.990;-1.608;2024-01-06T02:31:38;20.40;51.30
49379;DHT22;35254;47.990;-1.608;2024-01-06T02:34:03;20.40;51.30
49379;DHT22;35254;47.990;-1.608;2024-01-06T02:36:29;20.40;51.30
49379;DHT22;35254;47.990;-1.608;2024-01-06T02:38:54;20.40;51.30
49379;DHT22;35254;47.990;-1.608;2024-01-06T02:41:20;20.40;51.30
49379;DHT22;35254;47.990;-1.608;2024-01-06T02:43:46;20.40;51.30
49379;DHT22;35254;47.990;-1.608;2024-01-06T02:46:12;20.30;51.30
49379;DHT22;35254;47.990;-1.608;2024-01-06T02:48:38;20.40;51.20
49379;DHT22;35254;47.990;-1.608;2024-01-06T02:51:03;20.40;51.30
49379;DHT22;35254;47.990;-1.608;2024-01-06T02:53:29;20.30;51.20
49379;DHT22;35254;47.990;-1.608;2024-01-06T02:55:55;20.30;51.20
49379;DHT22;35254;47.990;-1.608;2024-01-06T02:58:20;20.30;51.20
49379;DHT22;35254;47.990;-1.608;2024-01-06T03:00:46;20.30;51.10
49379;DHT22;35254;47.990;-1.608;2024-01-06T03:03:11;20.30;51.20
49379;DHT22;35254;47.990;-1.608;2024-01-06T03:05:37;20.30;51.20
49379;DHT22;35254;47.990;-1.608;2024-01-06T03:08:04;20.20;51.20
49379;DHT22;35254;47.990;-1.608;2024-01-06T03:10:29;20.20;51.10
49379;DHT22;35254;47.990;-1.608;2024-01-06T03:12:55;20.20;51.20
49379;DHT22;35254;47.990;-1.608;2024-01-06T03:15:22;20.20;51.10
49379;DHT22;35254;47.990;-1.608;2024-01-06T03:17:47;20.20;51.10
49379;DHT22;35254;47.990;-1.608;2024-01-06T03:20:13;20.20;51.10
49379;DHT22;35254;47.990;-1.608;2024-01-06T03:22:39;20.20;51.10
49379;DHT22;35254;47.990;-1.608;2024-01-06T03:25:05;20.20;51.10
49379;DHT22;35254;47.990;-1.608;2024-01-06T03:27:31;20.20;51.10
49379;DHT22;35254;47.990;-1.608;2024-01-06T03:29:57;20.20;51.20
49379;DHT22;35254;47.990;-1.608;2024-01-06T03:32:22;20.20;51.20
49379;DHT22;35254;47.990;-1.608;2024-01-06T03:34:49;20.20;51.30
49379;DHT22;35254;47.990;-1.608;2024-01-06T03:37:15;20.20;51.30
49379;DHT22;35254;47.990;-1.608;2024-01-06T03:39:41;20.20;51.30
49379;DHT22;35254;47.990;-1.608;2024-01-06T03:42:06;20.20;51.30
49379;DHT22;35254;47.990;-1.608;2024-01-06T03:44:32;20.20;51.40
49379;DHT22;35254;47.990;-1.608;2024-01-06T03:46:59;20.20;51.30
49379;DHT22;35254;47.990;-1.608;2024-01-06T03:49:25;20.20;51.30
49379;DHT22;35254;47.990;-1.608;2024-01-06T03:51:51;20.20;51.30
49379;DHT22;35254;47.990;-1.608;2024-01-06T03:54:17;20.20;51.40
49379;DHT22;35254;47.990;-1.608;2024-01-06T03:56:43;20.20;51.40
49379;DHT22;35254;47.990;-1.608;2024-01-06T03:59:08;20.10;51.30
49379;DHT22;35254;47.990;-1.608;2024-01-06T04:01:34;20.10;51.40
49379;DHT22;35254;47.990;-1.608;2024-01-06T04:04:04;20.10;51.30
49379;DHT22;35254;47.990;-1.608;2024-01-06T04:06:30;20.10;51.30
49379;DHT22;35254;47.990;-1.608;2024-01-06T04:08:57;20.10;51.40
49379;DHT22;35254;47.990;-1.608;2024-01-06T04:11:23;20.10;51.40
49379;DHT22;35254;47.990;-1.608;2024-01-06T04:13:48;20.10;51.40
49379;DHT22;35254;47.990;-1.608;2024-01-06T04:16:14;20.10;51.30
49379;DHT22;35254;47.990;-1.608;2024-01-06T04:18:40;20.10;51.40
49379;DHT22;35254;47.990;-1.608;2024-01-06T04:21:05;20.10;51.40
49379;DHT22;35254;47.990;-1.608;2024-01-06T04:23:31;20.10;51.30
49379;DHT22;35254;47.990;-1.608;2024-01-06T04:25:57;20.10;51.40
49379;DHT22;35254;47.990;-1.608;2024-01-06T04:28:22;20.10;51.30
49379;DHT22;35254;47.990;-1.608;2024-01-06T04:30:50;20.10;51.30
49379;DHT22;35254;47.990;-1.608;2024-01-06T04:33:16;20.10;51.30
49379;DHT22;35254;47.990;-1.608;2024-01-06T04:35:41;20.10;51.30
49379;DHT22;35254;47.990;-1.608;2024-01-06T04:38:07;20.00;51.30
49379;DHT22;35254;47.990;-1.608;2024-01-06T04:40:32;20.10;51.20
49379;DHT22;35254;47.990;-1.608;2024-01-06T04:42:58;20.10;51.40
49379;DHT22;35254;47.990;-1.608;2024-01-06T04:45:24;20.00;51.30
49379;DHT22;35254;47.990;-1.608;2024-01-06T04:47:50;20.00;51.30
49379;DHT22;35254;47.990;-1.608;2024-01-06T04:50:16;20.00;51.20
49379;DHT22;35254;47.990;-1.608;2024-01-06T04:52:43;20.10;51.20
49379;DHT22;35254;47.990;-1.608;2024-01-06T04:55:09;20.00;51.30
49379;DHT22;35254;47.990;-1.608;2024-01-06T04:57:36;20.00;51.30
49379;DHT22;35254;47.990;-1.608;2024-01-06T05:00:02;20.00;51.30
49379;DHT22;35254;47.990;-1.608;2024-01-06T05:02:28;20.00;51.10
49379;DHT22;35254;47.990;-1.608;2024-01-06T05:04:54;20.00;51.20
49379;DHT22;35254;47.990;-1.608;2024-01-06T05:07:20;20.00;51.20
49379;DHT22;35254;47.990;-1.608;2024-01-06T05:09:45;20.00;51.20
49379;DHT22;35254;47.990;-1.608;2024-01-06T05:12:11;20.00;51.30
49379;DHT22;35254;47.990;-1.608;2024-01-06T05:14:36;20.00;51.20
49379;DHT22;35254;47.990;-1.608;2024-01-06T05:17:02;19.90;51.20
49379;DHT22;35254;47.990;-1.608;2024-01-06T05:19:28;20.00;51.20
49379;DHT22;35254;47.990;-1.608;2024-01-06T05:21:53;20.00;51.10
49379;DHT22;35254;47.990;-1.608;2024-01-06T05:24:19;19.90;51.20
49379;DHT22;35254;47.990;-1.608;2024-01-06T05:26:45;19.90;51.20
49379;DHT22;35254;47.990;-1.608;2024-01-06T05:29:10;19.90;51.20
49379;DHT22;35254;47.990;-1.608;2024-01-06T05:31:36;19.90;51.20
49379;DHT22;35254;47.990;-1.608;2024-01-06T05:34:02;19.90;51.20
49379;DHT22;35254;47.990;-1.608;2024-01-06T05:36:27;19.90;51.10
49379;DHT22;35254;47.990;-1.608;2024-01-06T05:38:53;19.90;51.20
49379;DHT22;35254;47.990;-1.608;2024-01-06T05:41:19;19.90;51.10
49379;DHT22;35254;47.990;-1.608;2024-01-06T05:43:44;19.90;51.10
49379;DHT22;35254;47.990;-1.608;2024-01-06T05:46:10;19.90;51.00
49379;DHT22;35254;47.990;-1.608;2024-01-06T05:48:36;19.90;51.00
49379;DHT22;35254;47.990;-1.608;2024-01-06T05:51:04;19.90;50.90
49379;DHT22;35254;47.990;-1.608;2024-01-06T05:53:31;19.80;50.80
49379;DHT22;35254;47.990;-1.608;2024-01-06T05:55:57;19.90;50.80
49379;DHT22;35254;47.990;-1.608;2024-01-06T05:58:22;19.80;50.80
49379;DHT22;35254;47.990;-1.608;2024-01-06T06:00:48;19.90;50.70
49379;DHT22;35254;47.990;-1.608;2024-01-06T06:03:14;19.80;50.70
49379;DHT22;35254;47.990;-1.608;2024-01-06T06:05:39;19.80;50.80
49379;DHT22;35254;47.990;-1.608;2024-01-06T06:08:05;19.80;50.70
49379;DHT22;35254;47.990;-1.608;2024-01-06T06:10:31;19.80;50.60
49379;DHT22;35254;47.990;-1.608;2024-01-06T06:13:07;19.80;50.60
49379;DHT22;35254;47.990;-1.608;2024-01-06T06:15:36;19.80;50.60
49379;DHT22;35254;47.990;-1.608;2024-01-06T06:18:01;19.80;50.70
49379;DHT22;35254;47.990;-1.608;2024-01-06T06:20:27;19.80;50.70
49379;DHT22;35254;47.990;-1.608;2024-01-06T06:22:53;19.80;50.60
49379;DHT22;35254;47.990;-1.608;2024-01-06T06:25:18;19.70;50.60
49379;DHT22;35254;47.990;-1.608;2024-01-06T06:27:44;19.80;50.60
49379;DHT22;35254;47.990;-1.608;2024-01-06T06:30:10;19.80;50.70
49379;DHT22;35254;47.990;-1.608;2024-01-06T06:32:36;19.70;50.60
49379;DHT22;35254;47.990;-1.608;2024-01-06T06:35:01;19.70;50.50
49379;DHT22;35254;47.990;-1.608;2024-01-06T06:37:27;19.70;50.70
49379;DHT22;35254;47.990;-1.608;2024-01-06T06:39:52;19.70;50.60
49379;DHT22;35254;47.990;-1.608;2024-01-06T06:42:18;19.70;50.60
49379;DHT22;35254;47.990;-1.608;2024-01-06T06:44:44;19.70;50.60
49379;DHT22;35254;47.990;-1.608;2024-01-06T06:47:09;19.70;50.60
49379;DHT22;35254;47.990;-1.608;2024-01-06T06:49:35;19.70;50.60
49379;DHT22;35254;47.990;-1.608;2024-01-06T06:52:00;19.70;50.70
49379;DHT22;35254;47.990;-1.608;2024-01-06T06:54:28;19.70;50.60
49379;DHT22;35254;47.990;-1.608;2024-01-06T06:56:54;19.70;50.60
49379;DHT22;35254;47.990;-1.608;2024-01-06T06:59:19;19.70;50.50
49379;DHT22;35254;47.990;-1.608;2024-01-06T07:01:45;19.70;50.40
49379;DHT22;35254;47.990;-1.608;2024-01-06T07:04:11;19.70;50.40
49379;DHT22;35254;47.990;-1.608;2024-01-06T07:06:36;19.70;50.40
49379;DHT22;35254;47.990;-1.608;2024-01-06T07:09:02;19.70;50.40
49379;DHT22;35254;47.990;-1.608;2024-01-06T07:11:28;19.70;50.50
49379;DHT22;35254;47.990;-1.608;2024-01-06T07:13:54;19.70;50.40
49379;DHT22;35254;47.990;-1.608;2024-01-06T07:16:19;19.70;50.40
49379;DHT22;35254;47.990;-1.608;2024-01-06T07:18:45;19.70;50.40
49379;DHT22;35254;47.990;-1.608;2024-01-06T07:21:12;19.70;50.30
49379;DHT22;35254;47.990;-1.608;2024-01-06T07:23:37;19.70;50.40
49379;DHT22;35254;47.990;-1.608;2024-01-06T07:26:03;19.70;50.40
49379;DHT22;35254;47.990;-1.608;2024-01-06T07:28:29;19.70;50.30
49379;DHT22;35254;47.990;-1.608;2024-01-06T07:30:55;19.70;50.30
49379;DHT22;35254;47.990;-1.608;2024-01-06T07:33:20;19.70;50.30
49379;DHT22;35254;47.990;-1.608;2024-01-06T07:35:46;19.60;50.40
49379;DHT22;35254;47.990;-1.608;2024-01-06T07:38:13;19.70;50.30
49379;DHT22;35254;47.990;-1.608;2024-01-06T07:40:39;19.70;50.30
49379;DHT22;35254;47.990;-1.608;2024-01-06T07:43:04;19.70;50.30
49379;DHT22;35254;47.990;-1.608;2024-01-06T07:45:31;19.60;50.30
49379;DHT22;35254;47.990;-1.608;2024-01-06T07:47:57;19.70;50.30
49379;DHT22;35254;47.990;-1.608;2024-01-06T07:50:23;19.60;50.40
49379;DHT22;35254;47.990;-1.608;2024-01-06T07:52:48;19.70;50.30
49379;DHT22;35254;47.990;-1.608;2024-01-06T07:55:14;19.70;50.20
49379;DHT22;35254;47.990;-1.608;2024-01-06T07:57:40;19.60;50.20
49379;DHT22;35254;47.990;-1.608;2024-01-06T08:00:06;19.60;50.30
49379;DHT22;35254;47.990;-1.608;2024-01-06T08:02:31;19.60;50.20
49379;DHT22;35254;47.990;-1.608;2024-01-06T08:04:57;19.60;50.20
49379;DHT22;35254;47.990;-1.608;2024-01-06T08:07:23;19.60;50.10
49379;DHT22;35254;47.990;-1.608;2024-01-06T08:09:49;19.60;50.00
49379;DHT22;35254;47.990;-1.608;2024-01-06T08:12:15;19.60;50.00
49379;DHT22;35254;47.990;-1.608;2024-01-06T08:14:41;19.60;50.10
49379;DHT22;35254;47.990;-1.608;2024-01-06T08:17:06;19.60;50.10
49379;DHT22;35254;47.990;-1.608;2024-01-06T08:19:32;19.60;50.10
49379;DHT22;35254;47.990;-1.608;2024-01-06T08:21:59;19.60;50.20
49379;DHT22;35254;47.990;-1.608;2024-01-06T08:24:24;19.60;50.20
49379;DHT22;35254;47.990;-1.608;2024-01-06T08:26:50;19.60;50.40
49379;DHT22;35254;47.990;-1.608;2024-01-06T08:29:16;19.60;50.50
49379;DHT22;35254;47.990;-1.608;2024-01-06T08:31:44;19.60;50.40
49379;DHT22;35254;47.990;-1.608;2024-01-06T08:34:10;19.60;50.40
49379;DHT22;35254;47.990;-1.608;2024-01-06T08:36:36;19.60;50.40
49379;DHT22;35254;47.990;-1.608;2024-01-06T08:39:01;19.60;50.30
49379;DHT22;35254;47.990;-1.608;2024-01-06T08:41:27;19.60;50.30
49379;DHT22;35254;47.990;-1.608;2024-01-06T08:43:53;19.60;50.30
49379;DHT22;35254;47.990;-1.608;2024-01-06T08:46:19;19.60;50.30
49379;DHT22;35254;47.990;-1.608;2024-01-06T08:48:45;19.70;50.40
49379;DHT22;35254;47.990;-1.608;2024-01-06T08:51:11;19.60;50.30
49379;DHT22;35254;47.990;-1.608;2024-01-06T08:53:36;19.70;50.40
49379;DHT22;35254;47.990;-1.608;2024-01-06T08:56:02;19.70;50.30
49379;DHT22;35254;47.990;-1.608;2024-01-06T08:58:28;19.70;50.30
49379;DHT22;35254;47.990;-1.608;2024-01-06T09:00:53;19.70;50.30
49379;DHT22;35254;47.990;-1.608;2024-01-06T09:03:19;19.70;50.30
49379;DHT22;35254;47.990;-1.608;2024-01-06T09:05:53;19.70;50.30
49379;DHT22;35254;47.990;-1.608;2024-01-06T09:08:20;19.70;50.20
49379;DHT22;35254;47.990;-1.608;2024-01-06T09:10:46;19.70;50.30
49379;DHT22;35254;47.990;-1.608;2024-01-06T09:13:13;19.70;50.20
49379;DHT22;35254;47.990;-1.608;2024-01-06T09:15:39;19.70;50.30
49379;DHT22;35254;47.990;-1.608;2024-01-06T09:18:04;19.70;50.30
49379;DHT22;35254;47.990;-1.608;2024-01-06T09:20:30;19.70;50.30
49379;DHT22;35254;47.990;-1.608;2024-01-06T09:22:55;19.70;50.50
49379;DHT22;35254;47.990;-1.608;2024-01-06T09:25:21;19.70;50.50
49379;DHT22;35254;47.990;-1.608;2024-01-06T09:27:50;19.70;50.60
49379;DHT22;35254;47.990;-1.608;2024-01-06T09:30:16;19.70;50.60
49379;DHT22;35254;47.990;-1.608;2024-01-06T09:32:42;19.70;50.60
49379;DHT22;35254;47.990;-1.608;2024-01-06T09:35:07;19.70;50.70
49379;DHT22;35254;47.990;-1.608;2024-01-06T09:37:33;19.70;50.80
49379;DHT22;35254;47.990;-1.608;2024-01-06T09:39:59;19.70;50.80
49379;DHT22;35254;47.990;-1.608;2024-01-06T09:42:24;19.80;50.90
49379;DHT22;35254;47.990;-1.608;2024-01-06T09:44:50;19.80;50.90
49379;DHT22;35254;47.990;-1.608;2024-01-06T09:47:18;19.80;51.00
49379;DHT22;35254;47.990;-1.608;2024-01-06T09:49:48;19.80;51.10
49379;DHT22;35254;47.990;-1.608;2024-01-06T09:52:14;19.80;51.10
49379;DHT22;35254;47.990;-1.608;2024-01-06T09:54:52;19.80;51.20
49379;DHT22;35254;47.990;-1.608;2024-01-06T09:57:18;19.80;51.30
49379;DHT22;35254;47.990;-1.608;2024-01-06T09:59:47;19.80;51.30
49379;DHT22;35254;47.990;-1.608;2024-01-06T10:02:16;19.90;51.40
49379;DHT22;35254;47.990;-1.608;2024-01-06T10:04:43;19.90;51.40
49379;DHT22;35254;47.990;-1.608;2024-01-06T10:07:09;19.90;51.40
49379;DHT22;35254;47.990;-1.608;2024-01-06T10:09:38;19.90;51.40
49379;DHT22;35254;47.990;-1.608;2024-01-06T10:12:04;19.90;51.40
49379;DHT22;35254;47.990;-1.608;2024-01-06T10:14:30;19.90;51.50
49379;DHT22;35254;47.990;-1.608;2024-01-06T10:16:55;19.90;51.60
49379;DHT22;35254;47.990;-1.608;2024-01-06T10:19:21;20.00;51.50
49379;DHT22;35254;47.990;-1.608;2024-01-06T10:21:48;19.90;51.60
49379;DHT22;35254;47.990;-1.608;2024-01-06T10:24:14;19.90;51.60
49379;DHT22;35254;47.990;-1.608;2024-01-06T10:26:40;20.00;51.60
49379;DHT22;35254;47.990;-1.608;2024-01-06T10:29:06;20.00;51.70
49379;DHT22;35254;47.990;-1.608;2024-01-06T10:31:31;20.00;51.80
49379;DHT22;35254;47.990;-1.608;2024-01-06T10:33:58;20.00;51.80
49379;DHT22;35254;47.990;-1.608;2024-01-06T10:36:25;20.00;51.80
49379;DHT22;35254;47.990;-1.608;2024-01-06T10:38:52;20.00;51.90
49379;DHT22;35254;47.990;-1.608;2024-01-06T10:41:19;20.00;51.80
49379;DHT22;35254;47.990;-1.608;2024-01-06T10:43:46;20.10;51.80
49379;DHT22;35254;47.990;-1.608;2024-01-06T10:46:13;20.20;51.80
49379;DHT22;35254;47.990;-1.608;2024-01-06T10:48:42;20.20;51.80
49379;DHT22;35254;47.990;-1.608;2024-01-06T10:51:13;20.20;51.80
49379;DHT22;35254;47.990;-1.608;2024-01-06T10:53:43;20.20;51.70
49379;DHT22;35254;47.990;-1.608;2024-01-06T10:56:09;20.20;51.70
49379;DHT22;35254;47.990;-1.608;2024-01-06T10:58:43;20.30;51.70
49379;DHT22;35254;47.990;-1.608;2024-01-06T11:01:11;20.30;51.60
49379;DHT22;35254;47.990;-1.608;2024-01-06T11:03:37;20.40;51.50
49379;DHT22;35254;47.990;-1.608;2024-01-06T11:06:06;20.30;51.50
49379;DHT22;35254;47.990;-1.608;2024-01-06T11:08:36;20.30;51.40
49379;DHT22;35254;47.990;-1.608;2024-01-06T11:11:05;20.40;51.40
49379;DHT22;35254;47.990;-1.608;2024-01-06T11:13:30;20.40;51.40
49379;DHT22;35254;47.990;-1.608;2024-01-06T11:15:56;20.40;51.30
49379;DHT22;35254;47.990;-1.608;2024-01-06T11:18:36;20.40;51.30
49379;DHT22;35254;47.990;-1.608;2024-01-06T11:23:43;20.50;51.30
49379;DHT22;35254;47.990;-1.608;2024-01-06T11:26:09;20.60;51.30
49379;DHT22;35254;47.990;-1.608;2024-01-06T11:28:47;20.50;51.20
49379;DHT22;35254;47.990;-1.608;2024-01-06T11:31:13;20.60;51.30
49379;DHT22;35254;47.990;-1.608;2024-01-06T11:33:45;20.60;51.40
49379;DHT22;35254;47.990;-1.608;2024-01-06T11:36:15;20.70;51.40
49379;DHT22;35254;47.990;-1.608;2024-01-06T11:38:41;20.70;51.30
49379;DHT22;35254;47.990;-1.608;2024-01-06T11:41:10;20.70;51.30
49379;DHT22;35254;47.990;-1.608;2024-01-06T11:43:56;20.70;51.30
49379;DHT22;35254;47.990;-1.608;2024-01-06T11:46:21;20.70;51.30
49379;DHT22;35254;47.990;-1.608;2024-01-06T11:48:47;20.70;51.30
49379;DHT22;35254;47.990;-1.608;2024-01-06T11:51:16;20.70;51.30
49379;DHT22;35254;47.990;-1.608;2024-01-06T11:53:44;20.70;51.30
49379;DHT22;35254;47.990;-1.608;2024-01-06T11:56:09;20.70;51.30
49379;DHT22;35254;47.990;-1.608;2024-01-06T11:58:38;20.80;51.30
49379;DHT22;35254;47.990;-1.608;2024-01-06T12:01:04;20.80;51.30
49379;DHT22;35254;47.990;-1.608;2024-01-06T12:03:30;20.80;51.30
49379;DHT22;35254;47.990;-1.608;2024-01-06T12:06:00;20.80;51.00
49379;DHT22;35254;47.990;-1.608;2024-01-06T12:08:27;20.80;50.80
49379;DHT22;35254;47.990;-1.608;2024-01-06T12:11:02;20.80;50.60
49379;DHT22;35254;47.990;-1.608;2024-01-06T12:13:28;20.70;50.50
49379;DHT22;35254;47.990;-1.608;2024-01-06T12:15:54;20.70;50.40
49379;DHT22;35254;47.990;-1.608;2024-01-06T12:18:20;20.80;50.10
49379;DHT22;35254;47.990;-1.608;2024-01-06T12:20:46;20.70;50.00
49379;DHT22;35254;47.990;-1.608;2024-01-06T12:23:12;20.70;50.10
49379;DHT22;35254;47.990;-1.608;2024-01-06T12:25:37;20.70;50.00
49379;DHT22;35254;47.990;-1.608;2024-01-06T12:28:05;20.70;49.90
49379;DHT22;35254;47.990;-1.608;2024-01-06T12:30:33;20.70;49.90
49379;DHT22;35254;47.990;-1.608;2024-01-06T12:32:59;20.70;50.10
49379;DHT22;35254;47.990;-1.608;2024-01-06T12:35:26;20.70;50.10
49379;DHT22;35254;47.990;-1.608;2024-01-06T12:37:52;20.70;50.20
49379;DHT22;35254;47.990;-1.608;2024-01-06T12:40:18;20.70;50.40
49379;DHT22;35254;47.990;-1.608;2024-01-06T12:42:45;20.70;50.60
49379;DHT22;35254;47.990;-1.608;2024-01-06T12:45:11;20.70;50.70
49379;DHT22;35254;47.990;-1.608;2024-01-06T12:47:38;20.70;50.80
49379;DHT22;35254;47.990;-1.608;2024-01-06T12:50:04;20.70;50.90
49379;DHT22;35254;47.990;-1.608;2024-01-06T12:52:30;20.70;50.90
49379;DHT22;35254;47.990;-1.608;2024-01-06T12:54:55;20.70;51.00
49379;DHT22;35254;47.990;-1.608;2024-01-06T12:57:21;20.70;51.10
49379;DHT22;35254;47.990;-1.608;2024-01-06T12:59:47;20.70;51.20
49379;DHT22;35254;47.990;-1.608;2024-01-06T13:02:13;20.70;51.40
49379;DHT22;35254;47.990;-1.608;2024-01-06T13:04:38;20.70;51.40
49379;DHT22;35254;47.990;-1.608;2024-01-06T13:07:04;20.70;51.50
49379;DHT22;35254;47.990;-1.608;2024-01-06T13:09:30;20.70;51.30
49379;DHT22;35254;47.990;-1.608;2024-01-06T13:11:55;20.70;51.20
49379;DHT22;35254;47.990;-1.608;2024-01-06T13:14:28;20.70;51.30
49379;DHT22;35254;47.990;-1.608;2024-01-06T13:16:55;20.70;51.50
49379;DHT22;35254;47.990;-1.608;2024-01-06T13:19:23;20.80;51.70
49379;DHT22;35254;47.990;-1.608;2024-01-06T13:21:48;20.80;52.00
49379;DHT22;35254;47.990;-1.608;2024-01-06T13:24:14;20.90;52.10
49379;DHT22;35254;47.990;-1.608;2024-01-06T13:26:40;20.90;52.40
49379;DHT22;35254;47.990;-1.608;2024-01-06T13:29:05;20.90;52.60
49379;DHT22;35254;47.990;-1.608;2024-01-06T13:31:31;20.90;52.60
49379;DHT22;35254;47.990;-1.608;2024-01-06T13:33:58;20.90;52.80
49379;DHT22;35254;47.990;-1.608;2024-01-06T13:36:23;20.90;52.80
49379;DHT22;35254;47.990;-1.608;2024-01-06T13:38:50;21.00;52.80
49379;DHT22;35254;47.990;-1.608;2024-01-06T13:41:15;21.00;52.90
49379;DHT22;35254;47.990;-1.608;2024-01-06T13:43:41;21.00;52.90
49379;DHT22;35254;47.990;-1.608;2024-01-06T13:46:07;21.00;52.90
49379;DHT22;35254;47.990;-1.608;2024-01-06T13:48:33;21.00;52.90
49379;DHT22;35254;47.990;-1.608;2024-01-06T13:50:59;21.00;52.80
49379;DHT22;35254;47.990;-1.608;2024-01-06T13:53:25;21.00;52.60
49379;DHT22;35254;47.990;-1.608;2024-01-06T13:55:50;21.00;52.50
49379;DHT22;35254;47.990;-1.608;2024-01-06T13:58:16;21.00;52.40
49379;DHT22;35254;47.990;-1.608;2024-01-06T14:00:45;21.00;52.50
49379;DHT22;35254;47.990;-1.608;2024-01-06T14:03:12;21.00;52.50
49379;DHT22;35254;47.990;-1.608;2024-01-06T14:05:37;20.90;52.40
49379;DHT22;35254;47.990;-1.608;2024-01-06T14:08:03;21.00;52.40
49379;DHT22;35254;47.990;-1.608;2024-01-06T14:10:29;21.00;52.40
49379;DHT22;35254;47.990;-1.608;2024-01-06T14:12:56;20.90;52.50
49379;DHT22;35254;47.990;-1.608;2024-01-06T14:15:22;20.90;52.70
49379;DHT22;35254;47.990;-1.608;2024-01-06T14:17:48;20.90;52.70
49379;DHT22;35254;47.990;-1.608;2024-01-06T14:20:16;20.90;52.70
49379;DHT22;35254;47.990;-1.608;2024-01-06T14:22:46;20.90;52.70
49379;DHT22;35254;47.990;-1.608;2024-01-06T14:25:13;20.90;52.70
49379;DHT22;35254;47.990;-1.608;2024-01-06T14:27:39;20.90;52.70
49379;DHT22;35254;47.990;-1.608;2024-01-06T14:30:05;20.90;52.70
49379;DHT22;35254;47.990;-1.608;2024-01-06T14:32:32;20.90;52.70
49379;DHT22;35254;47.990;-1.608;2024-01-06T14:34:58;20.90;52.60
49379;DHT22;35254;47.990;-1.608;2024-01-06T14:37:24;20.90;52.60
49379;DHT22;35254;47.990;-1.608;2024-01-06T14:39:49;20.90;52.60
49379;DHT22;35254;47.990;-1.608;2024-01-06T14:42:15;20.90;52.40
49379;DHT22;35254;47.990;-1.608;2024-01-06T14:44:41;20.90;51.40
49379;DHT22;35254;47.990;-1.608;2024-01-06T14:47:07;20.90;51.70
49379;DHT22;35254;47.990;-1.608;2024-01-06T14:49:33;20.90;51.60
49379;DHT22;35254;47.990;-1.608;2024-01-06T14:52:00;20.90;51.50
49379;DHT22;35254;47.990;-1.608;2024-01-06T14:54:27;20.90;51.50
49379;DHT22;35254;47.990;-1.608;2024-01-06T14:56:56;20.90;51.40
49379;DHT22;35254;47.990;-1.608;2024-01-06T14:59:23;21.00;51.40
49379;DHT22;35254;47.990;-1.608;2024-01-06T15:01:49;20.90;51.40
49379;DHT22;35254;47.990;-1.608;2024-01-06T15:04:14;21.00;51.40
49379;DHT22;35254;47.990;-1.608;2024-01-06T15:06:40;21.00;51.40
49379;DHT22;35254;47.990;-1.608;2024-01-06T15:09:06;21.00;51.30
49379;DHT22;35254;47.990;-1.608;2024-01-06T15:11:31;21.00;51.30